• Join FlightAware (Why Join?)
  • Login
  • US Flag 
06:52AM EDT


 

Airport Tracker/Info


-or-


 

Live Flight TrackerFlight Track Log ✈ GLA65P ✈ 14-May-2013 ✈ KPRC - KLAX

Flight Track Log - Related Links

Times and Time Zones

All times are in EDT time to prevent confusion due to time zone crossing. See the GLA65P flight status page for this flight to view local times or setup timezone preferences in your user account.

Time Position Orientation Groundspeed Altitude Reporting Facility
EDT Latitude Longitude Course Direction KTS MPH feet Rate Location/Type
04:55PM 34.6881 -112.4850 344° North 190 219 7,800  Level Los Angeles Center
04:56PM 34.7300 -112.5108 333° Northwest 199 229 9,700 1,860 Climbing Los Angeles Center
04:57PM 34.7128 -112.5847 254° West 190 219 12,000 1,680 Climbing Albuquerque Center
04:58PM 34.7069 -112.6492 264° West 195 224 13,500 1,380 Climbing Albuquerque Center
04:59PM 34.7114 -112.7183 274° West 204 235 14,900 1,260 Climbing Albuquerque Center
05:00PM 34.7131 -112.7906 272° West 210 242 16,200 1,320 Climbing Albuquerque Center
05:01PM 34.7156 -112.8786 272° West 216 249 17,700 1,140 Climbing Albuquerque Center
05:02PM 34.7172 -112.9522 272° West 219 252 18,600 840 Climbing Albuquerque Center
05:03PM 34.7150 -113.0267 268° West 221 254 19,500 600 Climbing Albuquerque Center
05:04PM 34.7056 -113.1072 262° West 235 270 19,900 180 Climbing Albuquerque Center
05:05PM 34.7128 -113.1936 276° West 258 297 19,900  Level Albuquerque Center
05:06PM 34.7261 -113.2789 281° West 259 298 20,000  Climbing Albuquerque Center
05:07PM 34.7333 -113.3658 276° West 259 298 20,000 -60 Level Albuquerque Center
05:09PM 34.7331 -113.4725 270° West 262 302 19,900 -60 Descending Albuquerque Center
05:10PM 34.7361 -113.5619 272° West 265 305 19,900  Level Albuquerque Center
05:11PM 34.7406 -113.6514 273° West 266 306 19,900  Level Albuquerque Center
05:12PM 34.7439 -113.7383 273° West 262 302 19,900  Level Albuquerque Center
05:13PM 34.7439 -113.8275 270° West 264 304 19,900  Level Albuquerque Center
05:14PM 34.7467 -113.9150 272° West 262 302 19,900  Level Albuquerque Center
05:15PM 34.7436 -114.0169 268° West 261 300 19,900  Level Albuquerque Center
05:16PM 34.7203 -114.0797 246° West 258 297 19,900  Level Los Angeles Center
05:17PM 34.6822 -114.1750 244° Southwest 259 298 19,900  Level Los Angeles Center
05:19PM 34.6108 -114.3417 243° Southwest 263 303 19,900  Level Los Angeles Center
05:20PM 34.5769 -114.4208 243° Southwest 266 306 19,900  Level Los Angeles Center
05:21PM 34.5458 -114.4994 244° Southwest 261 300 19,900  Level Los Angeles Center
05:22PM 34.5147 -114.5797 245° Southwest 263 303 19,900  Level Los Angeles Center
05:23PM 34.4839 -114.6703 248° West 263 303 19,900  Level Los Angeles Center
05:24PM 34.4583 -114.7511 249° West 260 299 19,900  Level Los Angeles Center
05:25PM 34.4317 -114.8339 249° West 261 300 19,900  Level Los Angeles Center
05:26PM 34.4069 -114.9147 250° West 259 298 19,900  Level Los Angeles Center
05:27PM 34.3772 -115.0111 250° West 257 296 19,900  Level Los Angeles Center
05:28PM 34.3506 -115.0922 248° West 259 298 19,900  Level Los Angeles Center
05:29PM 34.3194 -115.1686 244° Southwest 256 295 19,900  Level Los Angeles Center
05:30PM 34.2872 -115.2483 244° Southwest 262 302 19,900  Level Los Angeles Center
05:31PM 34.2589 -115.3269 246° West 257 296 19,900  Level Los Angeles Center
05:32PM 34.2256 -115.4225 247° West 258 297 19,900  Level Los Angeles Center
05:33PM 34.1994 -115.5011 248° West 254 292 19,900  Level Los Angeles Center
05:34PM 34.1744 -115.5814 249° West 255 293 19,900  Level Los Angeles Center
05:35PM 34.1453 -115.6592 246° West 255 293 20,000  Climbing Los Angeles Center
05:36PM 34.1139 -115.7369 244° Southwest 258 297 19,900 -60 Descending Los Angeles Center
05:37PM 34.0825 -115.8153 244° Southwest 261 300 19,900  Level Los Angeles Center
05:38PM 34.0458 -115.9072 244° Southwest 256 295 19,900  Level Los Angeles Center
05:39PM 34.0169 -115.9858 246° West 257 296 19,900 -360 Level Los Angeles Center
05:41PM 33.9908 -116.0647 248° West 255 293 19,200 -780 Descending Los Angeles Center
05:42PM 33.9647 -116.1469 249° West 261 300 18,300 -1,080 Descending Los Angeles Center
05:43PM 33.9403 -116.2294 250° West 263 303 17,000 -1,140 Descending Los Angeles Center
05:44PM 33.9131 -116.3081 247° West 259 298 16,000 -360 Descending Los Angeles Center
05:46PM 33.8758 -116.4736 255° West 236 272 15,900 -300 Descending Los Angeles Center
05:47PM 33.8750 -116.5531 269° West 237 273 15,200 -840 Descending Los Angeles Center
05:48PM 33.8778 -116.6336 272° West 240 276 14,200 -660 Descending Los Angeles Center
05:49PM 33.8811 -116.7100 273° West 234 269 13,900 -180 Descending Los Angeles Center
05:50PM 33.8886 -116.7969 276° West 221 254 13,900 -180 Level Los Angeles Center
05:51PM 33.8944 -116.8667 276° West 212 244 13,600 -540 Descending Los Angeles Center
05:51PM 33.9000 -116.8833 292° West 210 242 13,200 -960 Descending Southern California TRACON
05:52PM 33.9000 -116.9667 270° West 213 245 12,400 -900 Descending Southern California TRACON
05:53PM 33.9000 -117.0333 270° West 209 241 11,400 -960 Descending Southern California TRACON
05:54PM 33.9000 -117.1000 270° West 210 242 10,500 -840 Descending Southern California TRACON
05:55PM 33.9000 -117.1667 270° West 204 235 9,800 -780 Descending Southern California TRACON
05:56PM 33.9000 -117.2333 270° West 201 231 9,000 -780 Descending Southern California TRACON
05:57PM 33.9000 -117.3000 270° West 192 221 8,300 -600 Descending Southern California TRACON
05:58PM 33.9167 -117.3667 287° West 194 223 7,900 -180 Descending Southern California TRACON
05:59PM 33.9167 -117.4333 270° West 199 229 8,000  Climbing Southern California TRACON
06:00PM 33.9167 -117.5000 270° West 207 238 8,000 -60 Level Southern California TRACON
06:01PM 33.9167 -117.5667 270° West 226 260 7,900 -60 Descending Southern California TRACON
06:02PM 33.9167 -117.6333 270° West 228 262 7,900  Level Southern California TRACON
06:03PM 33.9167 -117.7167 270° West 217 250 7,900  Level Southern California TRACON
06:04PM 33.9333 -117.7833 287° West 216 249 7,900 -120 Level Southern California TRACON
06:05PM 33.9333 -117.8500 270° West 215 247 7,700 -660 Descending Southern California TRACON
06:06PM 33.9333 -117.9167 270° West 210 242 6,600 -780 Descending Southern California TRACON
06:07PM 33.9500 -117.9833 287° West 207 238 6,200 -480 Descending Southern California TRACON
06:08PM 33.9667 -118.0667 284° West 212 244 5,700 -720 Descending Southern California TRACON
06:09PM 33.9667 -118.1333 270° West 214 246 4,800 -840 Descending Southern California TRACON
06:10PM 33.9586 -118.1642 253° West 213 245 4,400 -960 Descending Los Angeles Center
06:11PM 33.9533 -118.2269 264° West 198 228 3,300 -1,200 Descending Los Angeles Center
06:12PM 33.9461 -118.2958 263° West 183 211 2,000 -1,200 Descending Los Angeles Center
06:13PM 33.9417 -118.3442 264° West 162 186 900 -900 Descending Los Angeles Center
06:14PM 33.9389 -118.3800 265° West 129 148 200 -720 Descending Los Angeles Center
06:16PM 33.9333 -118.4000 270° West  Level FlightAware Approximate
06:23PM 33.9425 -118.4081 270° West  Level Estimated